sensor_id;sensor_type;location;lat;lon;timestamp;P1;durP1;ratioP1;P2;durP2;ratioP2
17631;SDS011;8934;51.194;17.150;2022-09-17T00:01:32;4.23;;;3.43;;
17631;SDS011;8934;51.194;17.150;2022-09-17T00:04:20;4.47;;;3.53;;
17631;SDS011;8934;51.194;17.150;2022-09-17T00:07:08;3.00;;;2.77;;
17631;SDS011;8934;51.194;17.150;2022-09-17T00:09:55;3.40;;;2.87;;
17631;SDS011;8934;51.194;17.150;2022-09-17T00:12:43;3.70;;;3.07;;
17631;SDS011;8934;51.194;17.150;2022-09-17T00:15:37;3.27;;;3.07;;
17631;SDS011;8934;51.194;17.150;2022-09-17T00:18:26;3.93;;;3.37;;
17631;SDS011;8934;51.194;17.150;2022-09-17T00:21:14;3.93;;;2.53;;
17631;SDS011;8934;51.194;17.150;2022-09-17T00:24:03;3.60;;;2.40;;
17631;SDS011;8934;51.194;17.150;2022-09-17T00:26:51;2.67;;;2.47;;
17631;SDS011;8934;51.194;17.150;2022-09-17T00:29:39;4.73;;;2.60;;
17631;SDS011;8934;51.194;17.150;2022-09-17T00:32:29;2.50;;;2.30;;
17631;SDS011;8934;51.194;17.150;2022-09-17T00:35:18;6.93;;;2.37;;
17631;SDS011;8934;51.194;17.150;2022-09-17T00:38:06;3.57;;;2.60;;
17631;SDS011;8934;51.194;17.150;2022-09-17T00:40:54;2.07;;;1.90;;
17631;SDS011;8934;51.194;17.150;2022-09-17T00:43:42;2.63;;;2.38;;
17631;SDS011;8934;51.194;17.150;2022-09-17T00:46:32;2.83;;;2.20;;
17631;SDS011;8934;51.194;17.150;2022-09-17T00:49:26;4.78;;;2.40;;
17631;SDS011;8934;51.194;17.150;2022-09-17T00:52:17;2.55;;;2.17;;
17631;SDS011;8934;51.194;17.150;2022-09-17T00:55:11;2.80;;;1.90;;
17631;SDS011;8934;51.194;17.150;2022-09-17T00:58:04;2.20;;;2.00;;
17631;SDS011;8934;51.194;17.150;2022-09-17T01:00:54;2.57;;;2.10;;
17631;SDS011;8934;51.194;17.150;2022-09-17T01:03:42;2.00;;;1.77;;
17631;SDS011;8934;51.194;17.150;2022-09-17T01:06:32;1.97;;;1.63;;
17631;SDS011;8934;51.194;17.150;2022-09-17T01:09:25;2.00;;;1.73;;
17631;SDS011;8934;51.194;17.150;2022-09-17T01:12:24;1.90;;;1.70;;
17631;SDS011;8934;51.194;17.150;2022-09-17T01:15:26;2.20;;;1.80;;
17631;SDS011;8934;51.194;17.150;2022-09-17T01:18:23;2.50;;;2.03;;
17631;SDS011;8934;51.194;17.150;2022-09-17T01:21:32;2.00;;;1.47;;
17631;SDS011;8934;51.194;17.150;2022-09-17T01:24:41;4.07;;;1.60;;
17631;SDS011;8934;51.194;17.150;2022-09-17T01:27:46;4.00;;;1.47;;
17631;SDS011;8934;51.194;17.150;2022-09-17T01:34:11;3.07;;;1.63;;
17631;SDS011;8934;51.194;17.150;2022-09-17T01:37:07;3.00;;;1.40;;
17631;SDS011;8934;51.194;17.150;2022-09-17T01:40:02;1.55;;;1.45;;
17631;SDS011;8934;51.194;17.150;2022-09-17T01:42:56;2.45;;;1.40;;
17631;SDS011;8934;51.194;17.150;2022-09-17T01:45:48;1.58;;;1.38;;
17631;SDS011;8934;51.194;17.150;2022-09-17T01:48:39;4.85;;;1.20;;
17631;SDS011;8934;51.194;17.150;2022-09-17T01:51:31;2.10;;;1.30;;
17631;SDS011;8934;51.194;17.150;2022-09-17T01:54:24;1.55;;;1.45;;
17631;SDS011;8934;51.194;17.150;2022-09-17T01:57:15;2.40;;;2.00;;
17631;SDS011;8934;51.194;17.150;2022-09-17T02:00:09;1.75;;;1.48;;
17631;SDS011;8934;51.194;17.150;2022-09-17T02:03:01;2.30;;;1.35;;
17631;SDS011;8934;51.194;17.150;2022-09-17T02:05:54;3.40;;;1.58;;
17631;SDS011;8934;51.194;17.150;2022-09-17T02:08:48;2.90;;;1.63;;
17631;SDS011;8934;51.194;17.150;2022-09-17T02:11:39;1.45;;;1.30;;
17631;SDS011;8934;51.194;17.150;2022-09-17T02:14:29;1.77;;;1.30;;
17631;SDS011;8934;51.194;17.150;2022-09-17T02:17:23;1.70;;;1.25;;
17631;SDS011;8934;51.194;17.150;2022-09-17T02:20:14;1.67;;;1.58;;
17631;SDS011;8934;51.194;17.150;2022-09-17T02:23:10;1.70;;;1.60;;
17631;SDS011;8934;51.194;17.150;2022-09-17T02:26:02;1.60;;;1.50;;
17631;SDS011;8934;51.194;17.150;2022-09-17T02:28:54;1.65;;;1.55;;
17631;SDS011;8934;51.194;17.150;2022-09-17T02:31:45;1.38;;;1.27;;
17631;SDS011;8934;51.194;17.150;2022-09-17T02:34:33;2.88;;;1.40;;
17631;SDS011;8934;51.194;17.150;2022-09-17T02:37:21;2.08;;;1.33;;
17631;SDS011;8934;51.194;17.150;2022-09-17T02:40:11;4.32;;;1.63;;
17631;SDS011;8934;51.194;17.150;2022-09-17T02:43:03;1.90;;;1.60;;
17631;SDS011;8934;51.194;17.150;2022-09-17T02:46:00;4.18;;;1.70;;
17631;SDS011;8934;51.194;17.150;2022-09-17T02:49:09;2.22;;;1.45;;
17631;SDS011;8934;51.194;17.150;2022-09-17T02:52:23;2.38;;;1.63;;
17631;SDS011;8934;51.194;17.150;2022-09-17T02:55:28;2.72;;;1.45;;
17631;SDS011;8934;51.194;17.150;2022-09-17T02:58:23;3.05;;;1.60;;
17631;SDS011;8934;51.194;17.150;2022-09-17T03:01:18;3.20;;;1.50;;
17631;SDS011;8934;51.194;17.150;2022-09-17T03:04:11;1.85;;;1.70;;
17631;SDS011;8934;51.194;17.150;2022-09-17T03:07:03;1.52;;;1.42;;
17631;SDS011;8934;51.194;17.150;2022-09-17T03:09:53;1.97;;;1.50;;
17631;SDS011;8934;51.194;17.150;2022-09-17T03:12:43;1.60;;;1.50;;
17631;SDS011;8934;51.194;17.150;2022-09-17T03:15:31;2.53;;;1.50;;
17631;SDS011;8934;51.194;17.150;2022-09-17T03:18:18;1.40;;;1.25;;
17631;SDS011;8934;51.194;17.150;2022-09-17T03:21:06;3.10;;;1.95;;
17631;SDS011;8934;51.194;17.150;2022-09-17T03:23:55;2.08;;;1.60;;
17631;SDS011;8934;51.194;17.150;2022-09-17T03:26:45;3.17;;;2.10;;
17631;SDS011;8934;51.194;17.150;2022-09-17T03:29:35;5.70;;;3.30;;
17631;SDS011;8934;51.194;17.150;2022-09-17T03:32:24;3.35;;;2.15;;
17631;SDS011;8934;51.194;17.150;2022-09-17T03:35:12;3.95;;;2.30;;
17631;SDS011;8934;51.194;17.150;2022-09-17T03:38:00;6.05;;;3.10;;
17631;SDS011;8934;51.194;17.150;2022-09-17T03:40:55;9.25;;;2.95;;
17631;SDS011;8934;51.194;17.150;2022-09-17T03:43:44;7.85;;;3.13;;
17631;SDS011;8934;51.194;17.150;2022-09-17T03:46:33;3.60;;;2.60;;
17631;SDS011;8934;51.194;17.150;2022-09-17T03:49:21;4.85;;;1.80;;
17631;SDS011;8934;51.194;17.150;2022-09-17T03:52:09;11.38;;;3.78;;
17631;SDS011;8934;51.194;17.150;2022-09-17T03:54:57;8.07;;;3.05;;
17631;SDS011;8934;51.194;17.150;2022-09-17T03:57:45;6.22;;;3.55;;
17631;SDS011;8934;51.194;17.150;2022-09-17T04:00:33;6.15;;;2.40;;
17631;SDS011;8934;51.194;17.150;2022-09-17T04:03:24;9.65;;;3.42;;
17631;SDS011;8934;51.194;17.150;2022-09-17T04:06:12;3.80;;;2.17;;
17631;SDS011;8934;51.194;17.150;2022-09-17T04:09:00;3.10;;;1.85;;
17631;SDS011;8934;51.194;17.150;2022-09-17T04:11:49;6.55;;;2.42;;
17631;SDS011;8934;51.194;17.150;2022-09-17T04:14:37;6.22;;;3.33;;
17631;SDS011;8934;51.194;17.150;2022-09-17T04:17:26;3.22;;;2.25;;
17631;SDS011;8934;51.194;17.150;2022-09-17T04:20:15;4.00;;;2.22;;
17631;SDS011;8934;51.194;17.150;2022-09-17T04:23:03;4.55;;;1.45;;
17631;SDS011;8934;51.194;17.150;2022-09-17T04:25:51;7.15;;;2.05;;
17631;SDS011;8934;51.194;17.150;2022-09-17T04:28:40;2.85;;;1.50;;
17631;SDS011;8934;51.194;17.150;2022-09-17T04:31:28;5.40;;;2.10;;
17631;SDS011;8934;51.194;17.150;2022-09-17T04:34:15;3.70;;;2.63;;
17631;SDS011;8934;51.194;17.150;2022-09-17T04:37:04;13.32;;;7.80;;
17631;SDS011;8934;51.194;17.150;2022-09-17T04:39:52;8.95;;;5.95;;
17631;SDS011;8934;51.194;17.150;2022-09-17T04:42:40;4.30;;;2.70;;
17631;SDS011;8934;51.194;17.150;2022-09-17T04:45:28;4.32;;;2.63;;
17631;SDS011;8934;51.194;17.150;2022-09-17T04:48:18;8.73;;;6.03;;
17631;SDS011;8934;51.194;17.150;2022-09-17T04:51:05;4.32;;;2.75;;
17631;SDS011;8934;51.194;17.150;2022-09-17T04:53:55;2.85;;;2.45;;
17631;SDS011;8934;51.194;17.150;2022-09-17T04:56:42;3.92;;;1.98;;
17631;SDS011;8934;51.194;17.150;2022-09-17T04:59:30;2.35;;;2.08;;
17631;SDS011;8934;51.194;17.150;2022-09-17T05:02:17;5.18;;;1.65;;
17631;SDS011;8934;51.194;17.150;2022-09-17T05:05:05;1.70;;;1.60;;
17631;SDS011;8934;51.194;17.150;2022-09-17T05:07:53;5.05;;;2.50;;
17631;SDS011;8934;51.194;17.150;2022-09-17T05:10:42;1.95;;;1.70;;
17631;SDS011;8934;51.194;17.150;2022-09-17T05:13:30;1.75;;;1.65;;
17631;SDS011;8934;51.194;17.150;2022-09-17T05:16:18;2.88;;;1.70;;
17631;SDS011;8934;51.194;17.150;2022-09-17T05:19:06;2.55;;;1.98;;
17631;SDS011;8934;51.194;17.150;2022-09-17T05:21:54;1.85;;;1.75;;
17631;SDS011;8934;51.194;17.150;2022-09-17T05:24:42;2.60;;;1.75;;
17631;SDS011;8934;51.194;17.150;2022-09-17T05:27:31;4.05;;;2.00;;
17631;SDS011;8934;51.194;17.150;2022-09-17T05:30:19;2.22;;;1.95;;
17631;SDS011;8934;51.194;17.150;2022-09-17T05:33:07;2.90;;;1.80;;
17631;SDS011;8934;51.194;17.150;2022-09-17T05:35:58;4.25;;;2.25;;
17631;SDS011;8934;51.194;17.150;2022-09-17T05:38:46;5.63;;;2.40;;
17631;SDS011;8934;51.194;17.150;2022-09-17T05:41:34;6.07;;;2.33;;
17631;SDS011;8934;51.194;17.150;2022-09-17T05:44:23;3.65;;;2.47;;
17631;SDS011;8934;51.194;17.150;2022-09-17T05:47:11;4.70;;;2.88;;
17631;SDS011;8934;51.194;17.150;2022-09-17T05:49:59;4.60;;;3.20;;
17631;SDS011;8934;51.194;17.150;2022-09-17T05:52:47;4.78;;;2.72;;
17631;SDS011;8934;51.194;17.150;2022-09-17T05:55:35;6.28;;;3.13;;
17631;SDS011;8934;51.194;17.150;2022-09-17T05:58:22;6.60;;;3.05;;
17631;SDS011;8934;51.194;17.150;2022-09-17T06:01:12;5.88;;;3.50;;
17631;SDS011;8934;51.194;17.150;2022-09-17T06:04:03;11.68;;;4.93;;
17631;SDS011;8934;51.194;17.150;2022-09-17T06:06:51;7.68;;;3.15;;
17631;SDS011;8934;51.194;17.150;2022-09-17T06:09:38;3.88;;;2.70;;
17631;SDS011;8934;51.194;17.150;2022-09-17T06:12:26;9.85;;;4.53;;
17631;SDS011;8934;51.194;17.150;2022-09-17T06:15:14;11.55;;;4.82;;
17631;SDS011;8934;51.194;17.150;2022-09-17T06:18:03;7.07;;;3.13;;
17631;SDS011;8934;51.194;17.150;2022-09-17T06:20:51;3.97;;;3.05;;
17631;SDS011;8934;51.194;17.150;2022-09-17T06:23:39;10.50;;;4.57;;
17631;SDS011;8934;51.194;17.150;2022-09-17T06:26:28;5.93;;;3.30;;
17631;SDS011;8934;51.194;17.150;2022-09-17T06:29:15;7.60;;;4.30;;
17631;SDS011;8934;51.194;17.150;2022-09-17T06:32:03;4.95;;;3.42;;
17631;SDS011;8934;51.194;17.150;2022-09-17T06:34:55;7.80;;;3.25;;
17631;SDS011;8934;51.194;17.150;2022-09-17T06:37:43;4.47;;;3.60;;
17631;SDS011;8934;51.194;17.150;2022-09-17T06:40:30;3.85;;;3.30;;
17631;SDS011;8934;51.194;17.150;2022-09-17T06:43:18;4.50;;;3.38;;
17631;SDS011;8934;51.194;17.150;2022-09-17T06:46:06;5.93;;;2.72;;
17631;SDS011;8934;51.194;17.150;2022-09-17T06:48:55;6.95;;;4.10;;
17631;SDS011;8934;51.194;17.150;2022-09-17T06:51:45;6.32;;;3.20;;
17631;SDS011;8934;51.194;17.150;2022-09-17T06:54:33;4.50;;;3.38;;
17631;SDS011;8934;51.194;17.150;2022-09-17T06:57:21;6.15;;;3.92;;
17631;SDS011;8934;51.194;17.150;2022-09-17T07:00:09;3.65;;;3.05;;
17631;SDS011;8934;51.194;17.150;2022-09-17T07:02:58;5.03;;;2.88;;
17631;SDS011;8934;51.194;17.150;2022-09-17T07:05:47;3.30;;;2.72;;
17631;SDS011;8934;51.194;17.150;2022-09-17T07:08:36;4.68;;;3.33;;
17631;SDS011;8934;51.194;17.150;2022-09-17T07:11:24;4.40;;;2.92;;
17631;SDS011;8934;51.194;17.150;2022-09-17T07:14:12;4.03;;;2.35;;
17631;SDS011;8934;51.194;17.150;2022-09-17T07:16:59;2.80;;;2.60;;
17631;SDS011;8934;51.194;17.150;2022-09-17T07:19:47;4.35;;;2.70;;
17631;SDS011;8934;51.194;17.150;2022-09-17T07:22:36;3.70;;;2.55;;
17631;SDS011;8934;51.194;17.150;2022-09-17T07:25:25;3.88;;;2.90;;
17631;SDS011;8934;51.194;17.150;2022-09-17T07:28:13;3.25;;;2.95;;
17631;SDS011;8934;51.194;17.150;2022-09-17T07:31:02;5.13;;;3.10;;
17631;SDS011;8934;51.194;17.150;2022-09-17T07:33:51;3.25;;;2.53;;
17631;SDS011;8934;51.194;17.150;2022-09-17T07:36:39;4.35;;;2.97;;
17631;SDS011;8934;51.194;17.150;2022-09-17T07:39:26;6.75;;;3.58;;
17631;SDS011;8934;51.194;17.150;2022-09-17T07:42:16;2.95;;;2.65;;
17631;SDS011;8934;51.194;17.150;2022-09-17T07:45:04;2.92;;;2.38;;
17631;SDS011;8934;51.194;17.150;2022-09-17T07:47:52;5.15;;;2.55;;
17631;SDS011;8934;51.194;17.150;2022-09-17T07:50:40;5.00;;;3.00;;
17631;SDS011;8934;51.194;17.150;2022-09-17T07:53:28;5.00;;;3.13;;
17631;SDS011;8934;51.194;17.150;2022-09-17T07:56:16;3.58;;;3.20;;
17631;SDS011;8934;51.194;17.150;2022-09-17T07:59:06;5.60;;;3.00;;
17631;SDS011;8934;51.194;17.150;2022-09-17T08:01:55;4.25;;;3.40;;
17631;SDS011;8934;51.194;17.150;2022-09-17T08:04:42;3.97;;;3.40;;
17631;SDS011;8934;51.194;17.150;2022-09-17T08:07:30;4.40;;;3.05;;
17631;SDS011;8934;51.194;17.150;2022-09-17T08:10:19;4.72;;;3.33;;
17631;SDS011;8934;51.194;17.150;2022-09-17T08:13:08;3.75;;;2.80;;
17631;SDS011;8934;51.194;17.150;2022-09-17T08:16:00;7.05;;;3.10;;
17631;SDS011;8934;51.194;17.150;2022-09-17T08:18:52;4.65;;;3.03;;
17631;SDS011;8934;51.194;17.150;2022-09-17T08:21:41;3.60;;;3.00;;
17631;SDS011;8934;51.194;17.150;2022-09-17T08:24:28;4.38;;;3.13;;
17631;SDS011;8934;51.194;17.150;2022-09-17T08:27:17;5.30;;;3.42;;
17631;SDS011;8934;51.194;17.150;2022-09-17T08:30:05;3.67;;;3.15;;
17631;SDS011;8934;51.194;17.150;2022-09-17T08:32:55;3.78;;;2.85;;
17631;SDS011;8934;51.194;17.150;2022-09-17T08:35:49;3.60;;;3.30;;
17631;SDS011;8934;51.194;17.150;2022-09-17T08:38:38;6.78;;;3.25;;
17631;SDS011;8934;51.194;17.150;2022-09-17T08:41:28;4.57;;;3.10;;
17631;SDS011;8934;51.194;17.150;2022-09-17T08:44:24;4.72;;;3.15;;
17631;SDS011;8934;51.194;17.150;2022-09-17T08:47:18;6.18;;;4.20;;
17631;SDS011;8934;51.194;17.150;2022-09-17T08:50:12;6.32;;;3.97;;
17631;SDS011;8934;51.194;17.150;2022-09-17T08:53:19;4.60;;;3.10;;
17631;SDS011;8934;51.194;17.150;2022-09-17T08:56:17;3.50;;;3.20;;
17631;SDS011;8934;51.194;17.150;2022-09-17T08:59:07;5.45;;;3.75;;
17631;SDS011;8934;51.194;17.150;2022-09-17T09:02:10;4.13;;;3.30;;
17631;SDS011;8934;51.194;17.150;2022-09-17T09:05:10;5.57;;;3.70;;
17631;SDS011;8934;51.194;17.150;2022-09-17T09:08:03;4.68;;;3.47;;
17631;SDS011;8934;51.194;17.150;2022-09-17T09:10:58;4.30;;;3.90;;
17631;SDS011;8934;51.194;17.150;2022-09-17T09:13:48;3.38;;;2.75;;
17631;SDS011;8934;51.194;17.150;2022-09-17T09:16:40;3.70;;;3.33;;
17631;SDS011;8934;51.194;17.150;2022-09-17T09:19:30;4.40;;;3.85;;
17631;SDS011;8934;51.194;17.150;2022-09-17T09:22:31;5.97;;;3.92;;
17631;SDS011;8934;51.194;17.150;2022-09-17T09:25:29;4.28;;;3.92;;
17631;SDS011;8934;51.194;17.150;2022-09-17T09:28:30;5.07;;;4.18;;
17631;SDS011;8934;51.194;17.150;2022-09-17T09:31:26;5.47;;;3.67;;
17631;SDS011;8934;51.194;17.150;2022-09-17T09:34:33;4.90;;;3.85;;
17631;SDS011;8934;51.194;17.150;2022-09-17T09:37:22;4.70;;;4.05;;
17631;SDS011;8934;51.194;17.150;2022-09-17T09:40:18;6.88;;;4.75;;
17631;SDS011;8934;51.194;17.150;2022-09-17T09:43:16;4.82;;;4.43;;
17631;SDS011;8934;51.194;17.150;2022-09-17T09:46:10;5.45;;;4.95;;
17631;SDS011;8934;51.194;17.150;2022-09-17T09:49:12;12.95;;;7.95;;
17631;SDS011;8934;51.194;17.150;2022-09-17T09:52:12;8.00;;;5.38;;
17631;SDS011;8934;51.194;17.150;2022-09-17T09:55:15;8.20;;;5.38;;
17631;SDS011;8934;51.194;17.150;2022-09-17T09:58:16;5.47;;;4.93;;
17631;SDS011;8934;51.194;17.150;2022-09-17T10:01:11;5.80;;;4.68;;
17631;SDS011;8934;51.194;17.150;2022-09-17T10:04:05;9.93;;;6.07;;
17631;SDS011;8934;51.194;17.150;2022-09-17T10:07:03;8.75;;;5.35;;
17631;SDS011;8934;51.194;17.150;2022-09-17T10:09:52;5.43;;;4.93;;
17631;SDS011;8934;51.194;17.150;2022-09-17T10:13:06;6.55;;;5.60;;
17631;SDS011;8934;51.194;17.150;2022-09-17T10:16:08;5.38;;;4.80;;
17631;SDS011;8934;51.194;17.150;2022-09-17T10:19:10;5.22;;;4.20;;
17631;SDS011;8934;51.194;17.150;2022-09-17T10:22:01;4.53;;;4.13;;
17631;SDS011;8934;51.194;17.150;2022-09-17T10:25:19;4.53;;;4.13;;
17631;SDS011;8934;51.194;17.150;2022-09-17T10:28:23;4.30;;;4.00;;
17631;SDS011;8934;51.194;17.150;2022-09-17T10:31:21;4.13;;;3.60;;
17631;SDS011;8934;51.194;17.150;2022-09-17T10:34:11;4.00;;;3.60;;
17631;SDS011;8934;51.194;17.150;2022-09-17T10:37:08;3.53;;;3.33;;
17631;SDS011;8934;51.194;17.150;2022-09-17T10:40:27;5.00;;;3.33;;
17631;SDS011;8934;51.194;17.150;2022-09-17T10:43:17;3.20;;;3.00;;
17631;SDS011;8934;51.194;17.150;2022-09-17T10:46:11;3.83;;;3.33;;
17631;SDS011;8934;51.194;17.150;2022-09-17T10:49:06;4.63;;;3.92;;
17631;SDS011;8934;51.194;17.150;2022-09-17T10:52:07;5.20;;;4.28;;
17631;SDS011;8934;51.194;17.150;2022-09-17T10:55:12;4.57;;;3.97;;
17631;SDS011;8934;51.194;17.150;2022-09-17T10:58:11;7.07;;;4.20;;
17631;SDS011;8934;51.194;17.150;2022-09-17T11:01:13;4.13;;;3.40;;
17631;SDS011;8934;51.194;17.150;2022-09-17T11:04:24;7.53;;;4.55;;
17631;SDS011;8934;51.194;17.150;2022-09-17T11:07:27;4.25;;;3.55;;
17631;SDS011;8934;51.194;17.150;2022-09-17T11:10:21;8.70;;;4.18;;
17631;SDS011;8934;51.194;17.150;2022-09-17T11:13:18;5.53;;;3.53;;
17631;SDS011;8934;51.194;17.150;2022-09-17T11:16:21;5.60;;;3.22;;
17631;SDS011;8934;51.194;17.150;2022-09-17T11:19:21;3.22;;;2.53;;
17631;SDS011;8934;51.194;17.150;2022-09-17T11:22:19;2.85;;;2.63;;
17631;SDS011;8934;51.194;17.150;2022-09-17T11:25:18;3.10;;;2.80;;
17631;SDS011;8934;51.194;17.150;2022-09-17T11:28:15;4.53;;;2.45;;
17631;SDS011;8934;51.194;17.150;2022-09-17T11:31:23;3.38;;;2.40;;
17631;SDS011;8934;51.194;17.150;2022-09-17T11:34:22;2.42;;;2.20;;
17631;SDS011;8934;51.194;17.150;2022-09-17T11:37:16;2.50;;;2.30;;
17631;SDS011;8934;51.194;17.150;2022-09-17T11:40:11;2.28;;;1.90;;
17631;SDS011;8934;51.194;17.150;2022-09-17T11:43:03;2.90;;;2.60;;
17631;SDS011;8934;51.194;17.150;2022-09-17T11:46:01;1.98;;;1.80;;
17631;SDS011;8934;51.194;17.150;2022-09-17T11:48:58;1.70;;;1.60;;
17631;SDS011;8934;51.194;17.150;2022-09-17T11:51:52;3.50;;;2.00;;
17631;SDS011;8934;51.194;17.150;2022-09-17T11:54:47;1.65;;;1.55;;
17631;SDS011;8934;51.194;17.150;2022-09-17T11:57:39;2.00;;;1.70;;
17631;SDS011;8934;51.194;17.150;2022-09-17T12:00:29;2.13;;;1.42;;
17631;SDS011;8934;51.194;17.150;2022-09-17T12:03:22;1.75;;;1.55;;
17631;SDS011;8934;51.194;17.150;2022-09-17T12:06:20;1.67;;;1.50;;
17631;SDS011;8934;51.194;17.150;2022-09-17T12:09:14;1.70;;;1.20;;
17631;SDS011;8934;51.194;17.150;2022-09-17T12:12:09;4.53;;;1.50;;
17631;SDS011;8934;51.194;17.150;2022-09-17T12:15:22;3.13;;;1.20;;
17631;SDS011;8934;51.194;17.150;2022-09-17T12:18:17;1.98;;;1.25;;
17631;SDS011;8934;51.194;17.150;2022-09-17T12:21:20;2.85;;;1.38;;
17631;SDS011;8934;51.194;17.150;2022-09-17T12:24:13;3.28;;;1.60;;
17631;SDS011;8934;51.194;17.150;2022-09-17T12:27:08;1.65;;;1.20;;
17631;SDS011;8934;51.194;17.150;2022-09-17T12:30:13;2.70;;;1.58;;
17631;SDS011;8934;51.194;17.150;2022-09-17T12:33:11;1.60;;;1.50;;
17631;SDS011;8934;51.194;17.150;2022-09-17T12:39:33;2.33;;;1.70;;
17631;SDS011;8934;51.194;17.150;2022-09-17T12:42:42;3.55;;;1.52;;
17631;SDS011;8934;51.194;17.150;2022-09-17T12:45:52;1.20;;;1.20;;
17631;SDS011;8934;51.194;17.150;2022-09-17T12:49:00;2.85;;;1.48;;
17631;SDS011;8934;51.194;17.150;2022-09-17T12:52:02;2.25;;;1.30;;
17631;SDS011;8934;51.194;17.150;2022-09-17T12:54:56;1.63;;;1.30;;
17631;SDS011;8934;51.194;17.150;2022-09-17T12:58:09;1.35;;;1.25;;
17631;SDS011;8934;51.194;17.150;2022-09-17T13:01:05;2.10;;;1.27;;
17631;SDS011;8934;51.194;17.150;2022-09-17T13:04:01;1.25;;;1.25;;
17631;SDS011;8934;51.194;17.150;2022-09-17T13:07:14;1.60;;;1.20;;
17631;SDS011;8934;51.194;17.150;2022-09-17T13:13:52;1.17;;;1.08;;
17631;SDS011;8934;51.194;17.150;2022-09-17T13:16:48;1.90;;;1.23;;
17631;SDS011;8934;51.194;17.150;2022-09-17T13:19:43;0.65;;;0.65;;
17631;SDS011;8934;51.194;17.150;2022-09-17T13:22:43;0.85;;;0.85;;
17631;SDS011;8934;51.194;17.150;2022-09-17T13:25:33;0.95;;;0.82;;
17631;SDS011;8934;51.194;17.150;2022-09-17T13:28:41;1.05;;;0.80;;
17631;SDS011;8934;51.194;17.150;2022-09-17T13:31:47;2.13;;;1.10;;
17631;SDS011;8934;51.194;17.150;2022-09-17T13:34:36;1.27;;;0.90;;
17631;SDS011;8934;51.194;17.150;2022-09-17T13:37:24;0.82;;;0.80;;
17631;SDS011;8934;51.194;17.150;2022-09-17T13:40:19;3.80;;;1.30;;
17631;SDS011;8934;51.194;17.150;2022-09-17T13:43:10;1.33;;;0.95;;
17631;SDS011;8934;51.194;17.150;2022-09-17T13:46:10;1.85;;;1.13;;
17631;SDS011;8934;51.194;17.150;2022-09-17T13:49:11;1.50;;;0.88;;
17631;SDS011;8934;51.194;17.150;2022-09-17T13:52:01;1.15;;;0.90;;
17631;SDS011;8934;51.194;17.150;2022-09-17T13:54:56;1.15;;;1.00;;
17631;SDS011;8934;51.194;17.150;2022-09-17T13:57:47;0.70;;;0.70;;
17631;SDS011;8934;51.194;17.150;2022-09-17T14:00:46;1.35;;;0.80;;
17631;SDS011;8934;51.194;17.150;2022-09-17T14:03:45;2.30;;;0.90;;
17631;SDS011;8934;51.194;17.150;2022-09-17T14:06:48;1.90;;;1.40;;
17631;SDS011;8934;51.194;17.150;2022-09-17T14:09:48;2.25;;;1.15;;
17631;SDS011;8934;51.194;17.150;2022-09-17T14:16:39;1.30;;;0.75;;
17631;SDS011;8934;51.194;17.150;2022-09-17T14:19:33;1.67;;;0.77;;
17631;SDS011;8934;51.194;17.150;2022-09-17T14:22:36;1.60;;;0.80;;
17631;SDS011;8934;51.194;17.150;2022-09-17T14:25:27;1.35;;;0.80;;
17631;SDS011;8934;51.194;17.150;2022-09-17T14:28:27;0.75;;;0.70;;
17631;SDS011;8934;51.194;17.150;2022-09-17T14:31:21;1.83;;;0.95;;
17631;SDS011;8934;51.194;17.150;2022-09-17T14:34:18;2.30;;;0.90;;
17631;SDS011;8934;51.194;17.150;2022-09-17T14:37:08;1.48;;;1.05;;
17631;SDS011;8934;51.194;17.150;2022-09-17T14:40:01;2.97;;;1.05;;
17631;SDS011;8934;51.194;17.150;2022-09-17T14:42:55;0.82;;;0.82;;
17631;SDS011;8934;51.194;17.150;2022-09-17T14:45:44;2.30;;;1.00;;
17631;SDS011;8934;51.194;17.150;2022-09-17T14:48:37;3.22;;;1.13;;
17631;SDS011;8934;51.194;17.150;2022-09-17T14:51:25;3.72;;;1.58;;
17631;SDS011;8934;51.194;17.150;2022-09-17T14:54:16;1.45;;;1.30;;
17631;SDS011;8934;51.194;17.150;2022-09-17T14:57:09;1.88;;;1.30;;
17631;SDS011;8934;51.194;17.150;2022-09-17T15:00:15;1.77;;;1.20;;
17631;SDS011;8934;51.194;17.150;2022-09-17T15:03:18;2.97;;;1.45;;
17631;SDS011;8934;51.194;17.150;2022-09-17T15:06:18;2.35;;;1.38;;
17631;SDS011;8934;51.194;17.150;2022-09-17T15:09:12;1.85;;;1.13;;
17631;SDS011;8934;51.194;17.150;2022-09-17T15:12:01;2.15;;;1.10;;
17631;SDS011;8934;51.194;17.150;2022-09-17T15:14:50;1.10;;;0.93;;
17631;SDS011;8934;51.194;17.150;2022-09-17T15:17:40;2.65;;;1.45;;
17631;SDS011;8934;51.194;17.150;2022-09-17T15:20:28;3.75;;;1.52;;
17631;SDS011;8934;51.194;17.150;2022-09-17T15:23:20;2.40;;;1.80;;
17631;SDS011;8934;51.194;17.150;2022-09-17T15:26:11;2.13;;;1.50;;
17631;SDS011;8934;51.194;17.150;2022-09-17T15:29:00;3.55;;;2.00;;
17631;SDS011;8934;51.194;17.150;2022-09-17T15:31:49;2.55;;;2.22;;
17631;SDS011;8934;51.194;17.150;2022-09-17T15:34:37;2.53;;;2.30;;
17631;SDS011;8934;51.194;17.150;2022-09-17T15:37:25;3.15;;;2.13;;
17631;SDS011;8934;51.194;17.150;2022-09-17T15:40:21;3.30;;;2.38;;
17631;SDS011;8934;51.194;17.150;2022-09-17T15:43:15;3.55;;;2.50;;
17631;SDS011;8934;51.194;17.150;2022-09-17T15:46:18;2.45;;;2.25;;
17631;SDS011;8934;51.194;17.150;2022-09-17T15:49:28;4.85;;;2.10;;
17631;SDS011;8934;51.194;17.150;2022-09-17T15:52:24;2.08;;;1.30;;
17631;SDS011;8934;51.194;17.150;2022-09-17T15:55:29;2.97;;;1.13;;
17631;SDS011;8934;51.194;17.150;2022-09-17T15:58:20;2.28;;;0.73;;
17631;SDS011;8934;51.194;17.150;2022-09-17T16:04:32;1.90;;;0.80;;
17631;SDS011;8934;51.194;17.150;2022-09-17T16:07:27;1.10;;;0.90;;
17631;SDS011;8934;51.194;17.150;2022-09-17T16:10:16;2.15;;;1.10;;
17631;SDS011;8934;51.194;17.150;2022-09-17T16:13:06;2.33;;;0.93;;
17631;SDS011;8934;51.194;17.150;2022-09-17T16:15:54;1.92;;;1.02;;
17631;SDS011;8934;51.194;17.150;2022-09-17T16:18:42;2.35;;;1.00;;
17631;SDS011;8934;51.194;17.150;2022-09-17T16:21:30;1.25;;;1.00;;
17631;SDS011;8934;51.194;17.150;2022-09-17T16:24:18;1.35;;;1.05;;
17631;SDS011;8934;51.194;17.150;2022-09-17T16:27:06;1.63;;;1.10;;
17631;SDS011;8934;51.194;17.150;2022-09-17T16:30:01;2.75;;;1.40;;
17631;SDS011;8934;51.194;17.150;2022-09-17T16:32:51;1.35;;;1.20;;
17631;SDS011;8934;51.194;17.150;2022-09-17T16:35:40;1.85;;;1.10;;
17631;SDS011;8934;51.194;17.150;2022-09-17T16:38:28;1.45;;;1.35;;
17631;SDS011;8934;51.194;17.150;2022-09-17T16:41:16;3.30;;;1.25;;
17631;SDS011;8934;51.194;17.150;2022-09-17T16:44:04;2.30;;;1.48;;
17631;SDS011;8934;51.194;17.150;2022-09-17T16:46:54;2.53;;;1.70;;
17631;SDS011;8934;51.194;17.150;2022-09-17T16:49:42;2.47;;;1.30;;
17631;SDS011;8934;51.194;17.150;2022-09-17T16:52:30;2.25;;;1.45;;
17631;SDS011;8934;51.194;17.150;2022-09-17T16:55:18;2.70;;;1.42;;
17631;SDS011;8934;51.194;17.150;2022-09-17T16:58:06;5.88;;;1.60;;
17631;SDS011;8934;51.194;17.150;2022-09-17T17:00:54;2.38;;;1.33;;
17631;SDS011;8934;51.194;17.150;2022-09-17T17:03:43;2.10;;;1.05;;
17631;SDS011;8934;51.194;17.150;2022-09-17T17:06:33;2.90;;;1.45;;
17631;SDS011;8934;51.194;17.150;2022-09-17T17:09:21;1.77;;;1.55;;
17631;SDS011;8934;51.194;17.150;2022-09-17T17:12:09;2.47;;;1.52;;
17631;SDS011;8934;51.194;17.150;2022-09-17T17:14:57;1.55;;;1.45;;
17631;SDS011;8934;51.194;17.150;2022-09-17T17:17:47;5.03;;;1.77;;
17631;SDS011;8934;51.194;17.150;2022-09-17T17:20:36;2.38;;;1.40;;
17631;SDS011;8934;51.194;17.150;2022-09-17T17:23:24;1.70;;;1.60;;
17631;SDS011;8934;51.194;17.150;2022-09-17T17:26:11;2.25;;;1.35;;
17631;SDS011;8934;51.194;17.150;2022-09-17T17:28:59;3.08;;;1.60;;
17631;SDS011;8934;51.194;17.150;2022-09-17T17:31:47;3.58;;;1.48;;
17631;SDS011;8934;51.194;17.150;2022-09-17T17:34:36;2.20;;;1.40;;
17631;SDS011;8934;51.194;17.150;2022-09-17T17:37:25;2.72;;;1.35;;
17631;SDS011;8934;51.194;17.150;2022-09-17T17:40:13;2.90;;;1.65;;